NCAR-RAP Real-Time Weather Data

Output produced by METARs form (14 October 2019  22:40 UTC)
found at http://weather.rap.ucar.edu/surface/
 
KDLH 142155Z 27005KT 10SM FEW030 09/M02 A2989 RMK AO2 SLP135 T00941022 $
KDLH 142055Z 23012KT 10SM FEW030 09/M02 A2990 RMK AO2 SLP137 T00941022 57009 $